Pratica Di Mare, Italy

3:38 PM CEST on August 28, 2016 (GMT +0200)
Torvajanica Alta, Pomezia | | Change Station

Elev 128 ft 41.63 °N, 12.49 °E | Updated 1 second ago

Clear
Clear
83.3 °F
Feels Like 88 °F
N
11.5
Wind Variable Wind from West
Gusts 15.9 mph

Today
High -- | Low -- °F
--% Chance of Precip.
Yesterday
High -- | Low -- °F
Precip. -- in
Pressure 30.09 in
Visibility -9999.0 miles
Clouds
Heat Index 88 °F
Dew Point 72 °F
Humidity 65%
Rainfall 0.00 in
Snow Depth Not available.
6:32 AM 7:49 PM
Waning Crescent, 15% visible
METAR LIRA 281320Z 25009KT 210V290 CAVOK 31/13 Q1019
Pressure 30.09 in
Visibility -9999.0 miles
Clouds
Heat Index 88 °F
Dew Point 72 °F
Humidity 65%
Rainfall 0.00 in
Snow Depth Not available.
6:32 AM 7:49 PM
Waning Crescent, 15% visible
METAR LIRA 281320Z 25009KT 210V290 CAVOK 31/13 Q1019

10-Day Weather Forecast

×

Almanac

Astronomy

Aug. 28, 2016 Rise Set
Actual Time
Civil Twilight
Nautical Twilight
Astronomical Twilight
Moon
Length of Visible Light
Length of Day
Tomorrow will be .
, % of the Moon is Illuminated

Today's Extremes

Country Highs Country Lows

Community

WunderPhotos

Upload Photos

1,935,559 photos uploaded!

WunderBlog® & News

Nearby

Air Quality

  Air Quality AQ Index Pollutant
Not available.

Snow Depth

Station Depth Elevation

Earthquake Activity

City Distance Mag. Time & Date
Minimum magnitude displayed is 2.5.

Coastal Water Temperatures

Place Temperature

Stations

Nearby Weather Stations

Station Location Temp. Windchill Dew Point Humidity Wind Precip. Elev Updated Type